sensor_id;sensor_type;location;lat;lon;timestamp;pressure;altitude;pressure_sealevel;temperature;humidity
46756;BME280;32506;52.826;-1.192;2023-02-11T00:01:58;102722.00;;;8.85;59.45
46756;BME280;32506;52.826;-1.192;2023-02-11T00:04:25;102722.88;;;8.85;59.55
46756;BME280;32506;52.826;-1.192;2023-02-11T00:06:50;102722.88;;;8.85;59.74
46756;BME280;32506;52.826;-1.192;2023-02-11T00:09:16;102708.69;;;8.85;59.62
46756;BME280;32506;52.826;-1.192;2023-02-11T00:11:41;102709.53;;;8.85;59.55
46756;BME280;32506;52.826;-1.192;2023-02-11T00:14:09;102697.88;;;8.86;59.36
46756;BME280;32506;52.826;-1.192;2023-02-11T00:16:34;102699.53;;;8.87;59.56
46756;BME280;32506;52.826;-1.192;2023-02-11T00:19:01;102696.88;;;8.87;59.25
46756;BME280;32506;52.826;-1.192;2023-02-11T00:21:28;102700.41;;;8.88;59.26
46756;BME280;32506;52.826;-1.192;2023-02-11T00:23:54;102692.41;;;8.88;59.18
46756;BME280;32506;52.826;-1.192;2023-02-11T00:26:27;102701.22;;;8.88;59.61
46756;BME280;32506;52.826;-1.192;2023-02-11T00:28:53;102700.41;;;8.88;59.77
46756;BME280;32506;52.826;-1.192;2023-02-11T00:31:20;102708.41;;;8.88;59.86
46756;BME280;32506;52.826;-1.192;2023-02-11T00:33:45;102708.25;;;8.89;59.86
46756;BME280;32506;52.826;-1.192;2023-02-11T00:36:22;102712.59;;;8.90;59.83
46756;BME280;32506;52.826;-1.192;2023-02-11T00:38:50;102708.25;;;8.89;59.72
46756;BME280;32506;52.826;-1.192;2023-02-11T00:41:17;102715.28;;;8.90;59.95
46756;BME280;32506;52.826;-1.192;2023-02-11T00:43:42;102712.75;;;8.89;59.81
46756;BME280;32506;52.826;-1.192;2023-02-11T00:46:08;102716.25;;;8.89;60.05
46756;BME280;32506;52.826;-1.192;2023-02-11T00:48:34;102716.25;;;8.89;59.93
46756;BME280;32506;52.826;-1.192;2023-02-11T00:51:00;102722.41;;;8.90;59.84
46756;BME280;32506;52.826;-1.192;2023-02-11T00:53:26;102715.28;;;8.90;60.08
46756;BME280;32506;52.826;-1.192;2023-02-11T00:55:52;102709.06;;;8.90;59.82
46756;BME280;32506;52.826;-1.192;2023-02-11T00:58:17;102716.91;;;8.92;59.81
46756;BME280;32506;52.826;-1.192;2023-02-11T01:00:43;102729.44;;;8.91;59.94
46756;BME280;32506;52.826;-1.192;2023-02-11T01:03:11;102722.25;;;8.92;59.65
46756;BME280;32506;52.826;-1.192;2023-02-11T01:05:36;102724.91;;;8.92;59.92
46756;BME280;32506;52.826;-1.192;2023-02-11T01:08:02;102722.25;;;8.92;59.67
46756;BME280;32506;52.826;-1.192;2023-02-11T01:10:28;102723.13;;;8.92;59.65
46756;BME280;32506;52.826;-1.192;2023-02-11T01:12:53;102710.59;;;8.93;59.39
46756;BME280;32506;52.826;-1.192;2023-02-11T01:15:19;102711.47;;;8.93;59.69
46756;BME280;32506;52.826;-1.192;2023-02-11T01:17:45;102704.28;;;8.94;59.58
46756;BME280;32506;52.826;-1.192;2023-02-11T01:20:15;102700.66;;;8.95;59.55
46756;BME280;32506;52.826;-1.192;2023-02-11T01:22:41;102701.47;;;8.95;59.25
46756;BME280;32506;52.826;-1.192;2023-02-11T01:25:07;102705.00;;;8.96;59.44
46756;BME280;32506;52.826;-1.192;2023-02-11T01:27:33;102697.00;;;8.96;59.62
46756;BME280;32506;52.826;-1.192;2023-02-11T01:29:58;102708.50;;;8.96;59.27
46756;BME280;32506;52.826;-1.192;2023-02-11T01:32:24;102706.66;;;8.97;59.32
46756;BME280;32506;52.826;-1.192;2023-02-11T01:34:49;102714.50;;;8.98;59.60
46756;BME280;32506;52.826;-1.192;2023-02-11T01:37:15;102711.00;;;8.98;59.50
46756;BME280;32506;52.826;-1.192;2023-02-11T01:39:40;102713.66;;;8.98;59.55
46756;BME280;32506;52.826;-1.192;2023-02-11T01:42:06;102717.16;;;8.98;59.68
46756;BME280;32506;52.826;-1.192;2023-02-11T01:44:40;102718.03;;;8.99;59.71
46756;BME280;32506;52.826;-1.192;2023-02-11T01:47:06;102711.72;;;9.00;59.44
46756;BME280;32506;52.826;-1.192;2023-02-11T01:49:34;102710.84;;;8.99;59.74
46756;BME280;32506;52.826;-1.192;2023-02-11T01:52:26;102722.22;;;9.01;59.53
46756;BME280;32506;52.826;-1.192;2023-02-11T01:55:02;102724.88;;;9.01;60.01
46756;BME280;32506;52.826;-1.192;2023-02-11T01:57:52;102730.22;;;9.01;60.00
46756;BME280;32506;52.826;-1.192;2023-02-11T02:00:33;102735.41;;;9.03;59.84
46756;BME280;32506;52.826;-1.192;2023-02-11T02:03:19;102733.72;;;9.02;60.08
46756;BME280;32506;52.826;-1.192;2023-02-11T02:10:54;102737.25;;;9.02;59.78
46756;BME280;32506;52.826;-1.192;2023-02-11T02:13:24;102737.25;;;9.02;59.73
46756;BME280;32506;52.826;-1.192;2023-02-11T02:15:52;102727.41;;;9.03;59.91
46756;BME280;32506;52.826;-1.192;2023-02-11T02:21:21;102726.41;;;9.04;60.04
46756;BME280;32506;52.826;-1.192;2023-02-11T02:34:50;102734.94;;;9.07;59.65
46756;BME280;32506;52.826;-1.192;2023-02-11T02:40:23;102732.41;;;9.06;59.96
46756;BME280;32506;52.826;-1.192;2023-02-11T02:42:51;102735.94;;;9.06;60.05
46756;BME280;32506;52.826;-1.192;2023-02-11T02:45:17;102728.78;;;9.07;59.75
46756;BME280;32506;52.826;-1.192;2023-02-11T02:47:43;102734.81;;;9.09;60.02
46756;BME280;32506;52.826;-1.192;2023-02-11T02:50:09;102743.81;;;9.08;59.82
46756;BME280;32506;52.826;-1.192;2023-02-11T02:52:59;102735.78;;;9.08;59.98
46756;BME280;32506;52.826;-1.192;2023-02-11T02:58:50;102736.47;;;9.10;59.70
46756;BME280;32506;52.826;-1.192;2023-02-11T03:04:47;102738.97;;;9.12;60.20
46756;BME280;32506;52.826;-1.192;2023-02-11T03:07:24;102731.13;;;9.10;60.06
46756;BME280;32506;52.826;-1.192;2023-02-11T03:09:58;102731.13;;;9.10;60.05
46756;BME280;32506;52.826;-1.192;2023-02-11T03:12:27;102738.31;;;9.10;60.10
46756;BME280;32506;52.826;-1.192;2023-02-11T03:14:54;102729.31;;;9.11;60.27
46756;BME280;32506;52.826;-1.192;2023-02-11T03:17:22;102730.00;;;9.13;60.39
46756;BME280;32506;52.826;-1.192;2023-02-11T03:19:49;102731.84;;;9.12;59.94
46756;BME280;32506;52.826;-1.192;2023-02-11T03:22:29;102716.00;;;9.11;60.18
46756;BME280;32506;52.826;-1.192;2023-02-11T03:24:57;102719.31;;;9.13;60.05
46756;BME280;32506;52.826;-1.192;2023-02-11T03:27:32;102714.97;;;9.12;59.99
46756;BME280;32506;52.826;-1.192;2023-02-11T03:32:40;102713.16;;;9.12;60.23
46756;BME280;32506;52.826;-1.192;2023-02-11T03:35:12;102720.31;;;9.12;60.38
46756;BME280;32506;52.826;-1.192;2023-02-11T03:37:39;102723.69;;;9.14;60.26
46756;BME280;32506;52.826;-1.192;2023-02-11T03:40:15;102717.63;;;9.12;60.25
46756;BME280;32506;52.826;-1.192;2023-02-11T03:42:47;102715.13;;;9.10;59.95
46756;BME280;32506;52.826;-1.192;2023-02-11T03:45:16;102722.16;;;9.11;60.30
46756;BME280;32506;52.826;-1.192;2023-02-11T03:47:47;102714.31;;;9.10;60.06
46756;BME280;32506;52.826;-1.192;2023-02-11T03:50:15;102718.66;;;9.11;60.26
46756;BME280;32506;52.826;-1.192;2023-02-11T03:52:41;102722.31;;;9.10;60.40
46756;BME280;32506;52.826;-1.192;2023-02-11T03:55:11;102716.00;;;9.11;60.07
46756;BME280;32506;52.826;-1.192;2023-02-11T03:57:37;102715.28;;;9.09;60.23
46756;BME280;32506;52.826;-1.192;2023-02-11T04:00:04;102724.16;;;9.09;60.13
46756;BME280;32506;52.826;-1.192;2023-02-11T04:02:33;102735.63;;;9.10;60.40
46756;BME280;32506;52.826;-1.192;2023-02-11T04:05:00;102725.94;;;9.09;59.84
46756;BME280;32506;52.826;-1.192;2023-02-11T04:07:26;102729.59;;;9.07;60.04
46756;BME280;32506;52.826;-1.192;2023-02-11T04:09:52;102728.78;;;9.07;60.37
46756;BME280;32506;52.826;-1.192;2023-02-11T04:12:18;102725.28;;;9.06;60.18
46756;BME280;32506;52.826;-1.192;2023-02-11T04:14:43;102730.63;;;9.06;60.44
46756;BME280;32506;52.826;-1.192;2023-02-11T04:17:09;102729.75;;;9.06;60.30
46756;BME280;32506;52.826;-1.192;2023-02-11T04:19:35;102733.41;;;9.05;60.28
46756;BME280;32506;52.826;-1.192;2023-02-11T04:22:00;102732.59;;;9.04;60.15
46756;BME280;32506;52.826;-1.192;2023-02-11T04:24:26;102731.75;;;9.04;60.47
46756;BME280;32506;52.826;-1.192;2023-02-11T04:26:52;102741.56;;;9.03;60.16
46756;BME280;32506;52.826;-1.192;2023-02-11T04:29:18;102732.72;;;9.03;60.50
46756;BME280;32506;52.826;-1.192;2023-02-11T04:31:43;102747.91;;;9.02;60.34
46756;BME280;32506;52.826;-1.192;2023-02-11T04:34:09;102747.91;;;9.02;60.28
46756;BME280;32506;52.826;-1.192;2023-02-11T04:36:34;102754.22;;;9.01;60.53
46756;BME280;32506;52.826;-1.192;2023-02-11T04:39:00;102749.88;;;9.00;60.44
46756;BME280;32506;52.826;-1.192;2023-02-11T04:41:25;102757.03;;;9.00;60.56
46756;BME280;32506;52.826;-1.192;2023-02-11T04:43:51;102753.53;;;8.99;60.72
46756;BME280;32506;52.826;-1.192;2023-02-11T04:46:16;102749.03;;;9.00;60.69
46756;BME280;32506;52.826;-1.192;2023-02-11T04:48:42;102751.84;;;8.98;60.65
46756;BME280;32506;52.826;-1.192;2023-02-11T04:51:07;102758.19;;;8.97;60.62
46756;BME280;32506;52.826;-1.192;2023-02-11T04:53:33;102759.00;;;8.98;60.75
46756;BME280;32506;52.826;-1.192;2023-02-11T04:55:58;102764.50;;;8.96;61.00
46756;BME280;32506;52.826;-1.192;2023-02-11T04:58:23;102769.00;;;8.96;60.82
46756;BME280;32506;52.826;-1.192;2023-02-11T05:00:49;102770.81;;;8.95;60.85
46756;BME280;32506;52.826;-1.192;2023-02-11T05:03:15;102761.97;;;8.95;60.57
46756;BME280;32506;52.826;-1.192;2023-02-11T05:05:41;102767.47;;;8.93;60.69
46756;BME280;32506;52.826;-1.192;2023-02-11T05:08:10;102771.13;;;8.92;60.56
46756;BME280;32506;52.826;-1.192;2023-02-11T05:10:36;102773.78;;;8.92;60.54
46756;BME280;32506;52.826;-1.192;2023-02-11T05:13:02;102778.25;;;8.92;60.70
46756;BME280;32506;52.826;-1.192;2023-02-11T05:15:28;102779.28;;;8.90;60.40
46756;BME280;32506;52.826;-1.192;2023-02-11T05:17:54;102785.59;;;8.89;60.39
46756;BME280;32506;52.826;-1.192;2023-02-11T05:20:20;102799.91;;;8.88;60.67
46756;BME280;32506;52.826;-1.192;2023-02-11T05:22:46;102802.72;;;8.87;60.70
46756;BME280;32506;52.826;-1.192;2023-02-11T05:25:11;102801.88;;;8.86;60.69
46756;BME280;32506;52.826;-1.192;2023-02-11T05:27:37;102795.69;;;8.86;60.60
46756;BME280;32506;52.826;-1.192;2023-02-11T05:30:04;102794.00;;;8.85;60.40
46756;BME280;32506;52.826;-1.192;2023-02-11T05:32:29;102790.50;;;8.84;60.43
46756;BME280;32506;52.826;-1.192;2023-02-11T05:34:55;102794.00;;;8.85;60.68
46756;BME280;32506;52.826;-1.192;2023-02-11T05:37:20;102795.84;;;8.84;60.45
46756;BME280;32506;52.826;-1.192;2023-02-11T05:39:46;102803.03;;;8.84;60.61
46756;BME280;32506;52.826;-1.192;2023-02-11T05:42:12;102801.50;;;8.81;60.67
46756;BME280;32506;52.826;-1.192;2023-02-11T05:44:38;102800.50;;;8.82;60.30
46756;BME280;32506;52.826;-1.192;2023-02-11T05:47:03;102804.16;;;8.81;60.54
46756;BME280;32506;52.826;-1.192;2023-02-11T05:49:29;102802.47;;;8.80;60.58
46756;BME280;32506;52.826;-1.192;2023-02-11T05:51:54;102805.13;;;8.80;60.68
46756;BME280;32506;52.826;-1.192;2023-02-11T05:54:20;102807.78;;;8.80;60.72
46756;BME280;32506;52.826;-1.192;2023-02-11T05:56:45;102802.63;;;8.79;60.52
46756;BME280;32506;52.826;-1.192;2023-02-11T05:59:14;102808.78;;;8.79;60.32
46756;BME280;32506;52.826;-1.192;2023-02-11T06:01:39;102810.63;;;8.79;60.48
46756;BME280;32506;52.826;-1.192;2023-02-11T06:04:05;102807.94;;;8.79;60.79
46756;BME280;32506;52.826;-1.192;2023-02-11T06:06:30;102803.59;;;8.78;60.67
46756;BME280;32506;52.826;-1.192;2023-02-11T06:08:56;102791.94;;;8.79;60.59
46756;BME280;32506;52.826;-1.192;2023-02-11T06:11:21;102791.25;;;8.77;60.43
46756;BME280;32506;52.826;-1.192;2023-02-11T06:13:47;102792.09;;;8.77;60.57
46756;BME280;32506;52.826;-1.192;2023-02-11T06:16:12;102784.25;;;8.76;60.47
46756;BME280;32506;52.826;-1.192;2023-02-11T06:18:38;102792.25;;;8.76;60.68
46756;BME280;32506;52.826;-1.192;2023-02-11T06:21:10;102797.59;;;8.76;60.72
46756;BME280;32506;52.826;-1.192;2023-02-11T06:23:37;102804.72;;;8.75;60.52
46756;BME280;32506;52.826;-1.192;2023-02-11T06:26:04;102812.72;;;8.75;60.81
46756;BME280;32506;52.826;-1.192;2023-02-11T06:28:30;102807.53;;;8.73;60.87
46756;BME280;32506;52.826;-1.192;2023-02-11T06:30:57;102801.38;;;8.73;60.74
46756;BME280;32506;52.826;-1.192;2023-02-11T06:33:22;102807.53;;;8.73;60.49
46756;BME280;32506;52.826;-1.192;2023-02-11T06:35:48;102809.38;;;8.73;60.55
46756;BME280;32506;52.826;-1.192;2023-02-11T06:38:13;102810.34;;;8.72;60.57
46756;BME280;32506;52.826;-1.192;2023-02-11T06:40:39;102819.34;;;8.71;60.63
46756;BME280;32506;52.826;-1.192;2023-02-11T06:43:04;102814.00;;;8.71;60.40
46756;BME280;32506;52.826;-1.192;2023-02-11T06:45:30;102822.00;;;8.71;60.81
46756;BME280;32506;52.826;-1.192;2023-02-11T06:47:55;102817.66;;;8.70;60.59
46756;BME280;32506;52.826;-1.192;2023-02-11T06:50:21;102821.16;;;8.70;60.51
46756;BME280;32506;52.826;-1.192;2023-02-11T06:52:46;102824.81;;;8.69;60.58
46756;BME280;32506;52.826;-1.192;2023-02-11T06:55:12;102824.81;;;8.69;60.80
46756;BME280;32506;52.826;-1.192;2023-02-11T06:57:38;102829.31;;;8.69;60.53
46756;BME280;32506;52.826;-1.192;2023-02-11T07:00:04;102830.31;;;8.68;60.79
46756;BME280;32506;52.826;-1.192;2023-02-11T07:02:30;102830.44;;;8.66;60.58
46756;BME280;32506;52.826;-1.192;2023-02-11T07:04:55;102832.09;;;8.67;60.65
46756;BME280;32506;52.826;-1.192;2023-02-11T07:07:21;102837.59;;;8.66;60.35
46756;BME280;32506;52.826;-1.192;2023-02-11T07:09:46;102832.25;;;8.66;60.72
46756;BME280;32506;52.826;-1.192;2023-02-11T07:12:12;102835.06;;;8.64;60.82
46756;BME280;32506;52.826;-1.192;2023-02-11T07:14:37;102837.72;;;8.64;60.44
46756;BME280;32506;52.826;-1.192;2023-02-11T07:17:03;102833.53;;;8.62;60.53
46756;BME280;32506;52.826;-1.192;2023-02-11T07:19:29;102829.06;;;8.62;60.34
46756;BME280;32506;52.826;-1.192;2023-02-11T07:21:54;102834.38;;;8.62;60.42
46756;BME280;32506;52.826;-1.192;2023-02-11T07:24:20;102831.00;;;8.60;60.67
46756;BME280;32506;52.826;-1.192;2023-02-11T07:26:45;102839.84;;;8.61;60.53
46756;BME280;32506;52.826;-1.192;2023-02-11T07:29:11;102833.00;;;8.58;60.55
46756;BME280;32506;52.826;-1.192;2023-02-11T07:31:36;102846.31;;;8.58;60.74
46756;BME280;32506;52.826;-1.192;2023-02-11T07:34:02;102846.44;;;8.56;60.80
46756;BME280;32506;52.826;-1.192;2023-02-11T07:36:29;102858.13;;;8.55;60.24
46756;BME280;32506;52.826;-1.192;2023-02-11T07:38:56;102856.44;;;8.54;60.55
46756;BME280;32506;52.826;-1.192;2023-02-11T07:41:24;102855.56;;;8.54;60.15
46756;BME280;32506;52.826;-1.192;2023-02-11T07:43:50;102862.88;;;8.52;60.26
46756;BME280;32506;52.826;-1.192;2023-02-11T07:48:46;102873.69;;;8.50;60.12
46756;BME280;32506;52.826;-1.192;2023-02-11T07:51:17;102886.16;;;8.50;60.24
46756;BME280;32506;52.826;-1.192;2023-02-11T07:53:44;102880.97;;;8.48;60.26
46756;BME280;32506;52.826;-1.192;2023-02-11T07:56:10;102863.28;;;8.47;60.40
46756;BME280;32506;52.826;-1.192;2023-02-11T07:58:36;102867.66;;;8.48;60.05
46756;BME280;32506;52.826;-1.192;2023-02-11T08:01:03;102869.47;;;8.48;60.25
46756;BME280;32506;52.826;-1.192;2023-02-11T08:03:30;102865.13;;;8.47;60.33
46756;BME280;32506;52.826;-1.192;2023-02-11T08:05:56;102858.97;;;8.46;60.07
46756;BME280;32506;52.826;-1.192;2023-02-11T08:08:22;102866.97;;;8.46;60.43
46756;BME280;32506;52.826;-1.192;2023-02-11T08:10:49;102873.97;;;8.47;60.33
46756;BME280;32506;52.826;-1.192;2023-02-11T08:13:15;102875.66;;;8.48;60.33
46756;BME280;32506;52.826;-1.192;2023-02-11T08:15:40;102883.78;;;8.47;60.14
46756;BME280;32506;52.826;-1.192;2023-02-11T08:18:06;102873.97;;;8.47;60.52
46756;BME280;32506;52.826;-1.192;2023-02-11T08:20:32;102880.16;;;8.48;60.27
46756;BME280;32506;52.826;-1.192;2023-02-11T08:22:58;102877.47;;;8.48;60.01
46756;BME280;32506;52.826;-1.192;2023-02-11T08:25:23;102892.50;;;8.49;60.32
46756;BME280;32506;52.826;-1.192;2023-02-11T08:27:49;102881.84;;;8.49;60.22
46756;BME280;32506;52.826;-1.192;2023-02-11T08:30:14;102892.50;;;8.49;60.17
46756;BME280;32506;52.826;-1.192;2023-02-11T08:32:40;102885.31;;;8.49;59.93
46756;BME280;32506;52.826;-1.192;2023-02-11T08:35:06;102880.81;;;8.50;60.00
46756;BME280;32506;52.826;-1.192;2023-02-11T08:37:33;102881.69;;;8.50;60.04
46756;BME280;32506;52.826;-1.192;2023-02-11T08:39:58;102884.34;;;8.50;60.28
46756;BME280;32506;52.826;-1.192;2023-02-11T08:42:24;102883.38;;;8.51;59.97
46756;BME280;32506;52.826;-1.192;2023-02-11T08:44:49;102895.69;;;8.52;60.28
46756;BME280;32506;52.826;-1.192;2023-02-11T08:47:15;102889.53;;;8.52;60.08
46756;BME280;32506;52.826;-1.192;2023-02-11T08:49:40;102893.75;;;8.54;59.92
46756;BME280;32506;52.826;-1.192;2023-02-11T08:52:07;102899.06;;;8.54;60.02
46756;BME280;32506;52.826;-1.192;2023-02-11T08:54:32;102905.09;;;8.56;60.01
46756;BME280;32506;52.826;-1.192;2023-02-11T08:56:58;102905.94;;;8.57;60.00
46756;BME280;32506;52.826;-1.192;2023-02-11T08:59:26;102911.13;;;8.59;59.73
46756;BME280;32506;52.826;-1.192;2023-02-11T09:01:51;102898.47;;;8.61;59.69
46756;BME280;32506;52.826;-1.192;2023-02-11T09:04:17;102902.84;;;8.62;59.70
46756;BME280;32506;52.826;-1.192;2023-02-11T09:06:43;102893.72;;;8.64;59.92
46756;BME280;32506;52.826;-1.192;2023-02-11T09:09:11;102904.22;;;8.66;59.88
46756;BME280;32506;52.826;-1.192;2023-02-11T09:11:38;102912.09;;;8.67;59.61
46756;BME280;32506;52.826;-1.192;2023-02-11T09:14:05;102912.78;;;8.69;59.65
46756;BME280;32506;52.826;-1.192;2023-02-11T09:16:32;102917.00;;;8.72;59.69
46756;BME280;32506;52.826;-1.192;2023-02-11T09:18:59;102908.72;;;8.75;60.06
46756;BME280;32506;52.826;-1.192;2023-02-11T09:21:26;102920.09;;;8.77;59.96
46756;BME280;32506;52.826;-1.192;2023-02-11T09:23:52;102915.44;;;8.79;60.15
46756;BME280;32506;52.826;-1.192;2023-02-11T09:26:20;102915.16;;;8.82;60.20
46756;BME280;32506;52.826;-1.192;2023-02-11T09:28:47;102921.03;;;8.86;60.20
46756;BME280;32506;52.826;-1.192;2023-02-11T09:31:20;102920.63;;;8.90;60.19
46756;BME280;32506;52.826;-1.192;2023-02-11T09:33:48;102923.00;;;8.94;60.08
46756;BME280;32506;52.826;-1.192;2023-02-11T09:36:19;102922.53;;;8.98;60.46
46756;BME280;32506;52.826;-1.192;2023-02-11T09:38:46;102921.28;;;9.02;60.56
46756;BME280;32506;52.826;-1.192;2023-02-11T09:43:57;102921.25;;;9.12;60.46
46756;BME280;32506;52.826;-1.192;2023-02-11T09:46:24;102917.44;;;9.15;60.31
46756;BME280;32506;52.826;-1.192;2023-02-11T09:48:52;102917.72;;;9.21;60.63
46756;BME280;32506;52.826;-1.192;2023-02-11T09:51:43;102919.78;;;9.28;60.93
46756;BME280;32506;52.826;-1.192;2023-02-11T09:54:18;102904.00;;;9.34;61.37
46756;BME280;32506;52.826;-1.192;2023-02-11T09:56:45;102906.94;;;9.41;61.23
46756;BME280;32506;52.826;-1.192;2023-02-11T09:59:15;102908.03;;;9.48;61.38
46756;BME280;32506;52.826;-1.192;2023-02-11T10:02:01;102915.16;;;9.57;61.72
46756;BME280;32506;52.826;-1.192;2023-02-11T10:04:42;102923.41;;;9.64;62.10
46756;BME280;32506;52.826;-1.192;2023-02-11T10:07:26;102929.81;;;9.71;61.89
46756;BME280;32506;52.826;-1.192;2023-02-11T10:12:51;102920.44;;;9.85;61.86
46756;BME280;32506;52.826;-1.192;2023-02-11T10:15:41;102909.19;;;9.91;61.92
46756;BME280;32506;52.826;-1.192;2023-02-11T10:23:55;102905.97;;;10.06;61.75
46756;BME280;32506;52.826;-1.192;2023-02-11T10:26:22;102900.16;;;10.11;61.71
46756;BME280;32506;52.826;-1.192;2023-02-11T10:28:51;102902.53;;;10.14;61.72
46756;BME280;32506;52.826;-1.192;2023-02-11T10:31:25;102912.63;;;10.20;62.13
46756;BME280;32506;52.826;-1.192;2023-02-11T10:34:02;102919.16;;;10.25;62.04
46756;BME280;32506;52.826;-1.192;2023-02-11T10:36:35;102929.56;;;10.29;61.94
46756;BME280;32506;52.826;-1.192;2023-02-11T10:39:21;102936.28;;;10.33;61.79
46756;BME280;32506;52.826;-1.192;2023-02-11T10:41:59;102931.50;;;10.36;61.95
46756;BME280;32506;52.826;-1.192;2023-02-11T10:44:30;102929.53;;;10.38;61.83
46756;BME280;32506;52.826;-1.192;2023-02-11T10:46:58;102924.72;;;10.42;61.60
46756;BME280;32506;52.826;-1.192;2023-02-11T10:49:52;102921.56;;;10.47;61.75
46756;BME280;32506;52.826;-1.192;2023-02-11T10:52:28;102930.28;;;10.49;61.61
46756;BME280;32506;52.826;-1.192;2023-02-11T10:57:59;102937.22;;;10.60;61.44
46756;BME280;32506;52.826;-1.192;2023-02-11T11:00:43;102921.84;;;10.62;61.38
46756;BME280;32506;52.826;-1.192;2023-02-11T11:03:17;102917.53;;;10.69;61.99
46756;BME280;32506;52.826;-1.192;2023-02-11T11:05:52;102915.81;;;10.86;62.68
46756;BME280;32506;52.826;-1.192;2023-02-11T11:08:19;102928.31;;;11.03;62.20
46756;BME280;32506;52.826;-1.192;2023-02-11T11:11:25;102927.56;;;11.19;62.17
46756;BME280;32506;52.826;-1.192;2023-02-11T11:18:48;102923.13;;;11.36;61.63
46756;BME280;32506;52.826;-1.192;2023-02-11T11:21:27;102923.50;;;11.41;61.86
46756;BME280;32506;52.826;-1.192;2023-02-11T11:23:57;102910.59;;;11.45;61.36
46756;BME280;32506;52.826;-1.192;2023-02-11T11:26:26;102913.81;;;11.49;61.53
46756;BME280;32506;52.826;-1.192;2023-02-11T11:28:59;102919.19;;;11.57;61.61
46756;BME280;32506;52.826;-1.192;2023-02-11T11:31:45;102900.81;;;11.70;61.45
46756;BME280;32506;52.826;-1.192;2023-02-11T11:34:21;102895.47;;;11.79;61.25
46756;BME280;32506;52.826;-1.192;2023-02-11T11:36:48;102901.53;;;11.89;61.13
46756;BME280;32506;52.826;-1.192;2023-02-11T11:41:55;102907.44;;;12.01;61.07
46756;BME280;32506;52.826;-1.192;2023-02-11T11:44:34;102899.56;;;12.07;60.67
46756;BME280;32506;52.826;-1.192;2023-02-11T11:54:42;102879.81;;;12.33;60.47
46756;BME280;32506;52.826;-1.192;2023-02-11T11:57:13;102890.00;;;12.38;60.50
46756;BME280;32506;52.826;-1.192;2023-02-11T11:59:41;102893.19;;;12.41;60.31
46756;BME280;32506;52.826;-1.192;2023-02-11T12:05:24;102901.59;;;12.47;60.35
46756;BME280;32506;52.826;-1.192;2023-02-11T12:08:06;102894.06;;;12.50;60.33
46756;BME280;32506;52.826;-1.192;2023-02-11T12:10:45;102895.69;;;12.51;60.33
46756;BME280;32506;52.826;-1.192;2023-02-11T12:13:21;102896.56;;;12.52;60.00
46756;BME280;32506;52.826;-1.192;2023-02-11T12:18:35;102900.75;;;12.54;60.09
46756;BME280;32506;52.826;-1.192;2023-02-11T12:26:46;102901.56;;;12.55;59.62
46756;BME280;32506;52.826;-1.192;2023-02-11T12:29:52;102898.88;;;12.55;59.59
46756;BME280;32506;52.826;-1.192;2023-02-11T12:35:35;102897.88;;;12.56;59.54
46756;BME280;32506;52.826;-1.192;2023-02-11T12:44:30;102912.47;;;12.53;59.53
46756;BME280;32506;52.826;-1.192;2023-02-11T12:47:18;102914.47;;;12.51;59.20
46756;BME280;32506;52.826;-1.192;2023-02-11T12:52:24;102917.16;;;12.51;59.47
46756;BME280;32506;52.826;-1.192;2023-02-11T12:54:59;102920.88;;;12.50;59.43
46756;BME280;32506;52.826;-1.192;2023-02-11T12:57:31;102923.56;;;12.50;58.97
46756;BME280;32506;52.826;-1.192;2023-02-11T13:02:54;102940.66;;;12.49;59.03
46756;BME280;32506;52.826;-1.192;2023-02-11T13:08:13;102935.63;;;12.46;58.77
46756;BME280;32506;52.826;-1.192;2023-02-11T13:10:41;102933.09;;;12.45;58.73
46756;BME280;32506;52.826;-1.192;2023-02-11T13:13:15;102929.75;;;12.42;58.83
46756;BME280;32506;52.826;-1.192;2023-02-11T13:16:02;102931.44;;;12.44;58.86
46756;BME280;32506;52.826;-1.192;2023-02-11T13:19:06;102932.44;;;12.42;58.92
46756;BME280;32506;52.826;-1.192;2023-02-11T13:26:59;102929.06;;;12.40;58.53
46756;BME280;32506;52.826;-1.192;2023-02-11T13:35:32;102928.59;;;12.37;58.09
46756;BME280;32506;52.826;-1.192;2023-02-11T13:37:59;102926.91;;;12.36;58.61
46756;BME280;32506;52.826;-1.192;2023-02-11T13:40:37;102921.53;;;12.36;58.69
46756;BME280;32506;52.826;-1.192;2023-02-11T13:43:06;102929.56;;;12.36;58.41
46756;BME280;32506;52.826;-1.192;2023-02-11T13:45:48;102921.72;;;12.34;58.22
46756;BME280;32506;52.826;-1.192;2023-02-11T13:48:29;102920.69;;;12.35;58.30
46756;BME280;32506;52.826;-1.192;2023-02-11T13:50:59;102907.63;;;12.32;57.98
46756;BME280;32506;52.826;-1.192;2023-02-11T13:53:25;102902.25;;;12.32;58.10
46756;BME280;32506;52.826;-1.192;2023-02-11T13:56:03;102909.47;;;12.32;58.32
46756;BME280;32506;52.826;-1.192;2023-02-11T14:00:54;102915.00;;;12.30;58.23
46756;BME280;32506;52.826;-1.192;2023-02-11T14:03:29;102918.50;;;12.31;58.32
46756;BME280;32506;52.826;-1.192;2023-02-11T14:06:17;102905.44;;;12.28;58.35
46756;BME280;32506;52.826;-1.192;2023-02-11T14:09:31;102901.09;;;12.27;58.36
46756;BME280;32506;52.826;-1.192;2023-02-11T14:12:32;102901.91;;;12.27;58.28
46756;BME280;32506;52.826;-1.192;2023-02-11T14:15:17;102906.44;;;12.27;58.26
46756;BME280;32506;52.826;-1.192;2023-02-11T14:17:43;102911.13;;;12.24;58.12
46756;BME280;32506;52.826;-1.192;2023-02-11T14:20:32;102899.56;;;12.24;58.10
46756;BME280;32506;52.826;-1.192;2023-02-11T14:22:58;102904.25;;;12.22;58.29
46756;BME280;32506;52.826;-1.192;2023-02-11T14:25:25;102907.09;;;12.20;58.32
46756;BME280;32506;52.826;-1.192;2023-02-11T14:27:59;102907.09;;;12.20;58.29
46756;BME280;32506;52.826;-1.192;2023-02-11T14:30:52;102908.13;;;12.19;58.19
46756;BME280;32506;52.826;-1.192;2023-02-11T14:36:20;102903.09;;;12.16;57.97
46756;BME280;32506;52.826;-1.192;2023-02-11T14:41:26;102912.28;;;12.14;58.09
46756;BME280;32506;52.826;-1.192;2023-02-11T14:44:00;102912.47;;;12.12;57.98
46756;BME280;32506;52.826;-1.192;2023-02-11T14:46:28;102911.63;;;12.12;58.13
46756;BME280;32506;52.826;-1.192;2023-02-11T14:48:58;102913.47;;;12.11;58.14
46756;BME280;32506;52.826;-1.192;2023-02-11T14:51:28;102913.63;;;12.09;58.28
46756;BME280;32506;52.826;-1.192;2023-02-11T14:53:58;102920.00;;;12.08;58.12